createdAt,value
2018-10-12T00:01:16.821Z,43.10
2018-10-12T00:03:45.664Z,40.43
2018-10-12T00:06:14.186Z,41.67
2018-10-12T00:08:42.745Z,36.13
2018-10-12T00:11:12.050Z,37.17
2018-10-12T00:13:40.573Z,41.00
2018-10-12T00:16:09.217Z,46.53
2018-10-12T00:18:37.784Z,49.47
2018-10-12T00:21:06.384Z,51.13
2018-10-12T00:23:35.605Z,50.17
2018-10-12T00:26:04.099Z,51.63
2018-10-12T00:28:32.805Z,51.87
2018-10-12T00:31:01.788Z,53.97
2018-10-12T00:33:31.363Z,55.87
2018-10-12T00:36:00.103Z,56.13
2018-10-12T00:38:28.737Z,54.83
2018-10-12T00:40:57.461Z,57.30
2018-10-12T00:43:26.002Z,54.87
2018-10-12T00:45:55.611Z,56.63
2018-10-12T00:48:24.138Z,54.53
2018-10-12T00:50:52.678Z,53.53
2018-10-12T00:53:21.260Z,52.80
2018-10-12T00:55:50.300Z,53.73
2018-10-12T00:58:18.858Z,53.77
2018-10-12T01:00:47.618Z,54.10
2018-10-12T01:03:16.270Z,55.37
2018-10-12T01:05:44.779Z,53.63
2018-10-12T01:08:13.487Z,53.93
2018-10-12T01:10:42.176Z,52.70
2018-10-12T01:13:10.937Z,55.07
2018-10-12T01:15:39.483Z,54.37
2018-10-12T01:18:09.085Z,54.20
2018-10-12T01:20:38.101Z,55.23
2018-10-12T01:23:06.963Z,53.00
2018-10-12T01:25:35.768Z,54.43
2018-10-12T01:28:04.520Z,52.47
2018-10-12T01:30:33.045Z,52.47
2018-10-12T01:33:05.935Z,54.00
2018-10-12T01:35:35.050Z,51.20
2018-10-12T01:38:03.683Z,56.60
2018-10-12T01:40:32.899Z,57.60
2018-10-12T01:43:02.121Z,54.10
2018-10-12T01:45:31.173Z,48.23
2018-10-12T01:47:59.734Z,49.70
2018-10-12T01:50:28.353Z,51.57
2018-10-12T01:52:56.870Z,55.57
2018-10-12T01:55:25.617Z,56.80
2018-10-12T01:57:54.131Z,55.53
2018-10-12T02:00:22.779Z,60.50
2018-10-12T02:02:51.346Z,61.43
2018-10-12T02:05:20.501Z,61.67
2018-10-12T02:07:50.033Z,58.83
2018-10-12T02:10:18.599Z,61.57
2018-10-12T02:12:47.103Z,67.07
2018-10-12T02:15:15.949Z,72.57
2018-10-12T02:17:44.524Z,71.50
2018-10-12T02:20:13.353Z,70.57
2018-10-12T02:22:42.359Z,70.87
2018-10-12T02:25:11.567Z,70.43
2018-10-12T02:27:40.069Z,71.60
2018-10-12T02:30:09.135Z,69.13
2018-10-12T02:32:37.945Z,70.03
2018-10-12T02:35:07.653Z,68.40
2018-10-12T02:37:36.333Z,72.57
2018-10-12T02:40:05.026Z,76.47
2018-10-12T02:42:33.582Z,75.77
2018-10-12T02:45:02.209Z,79.57
2018-10-12T02:47:30.755Z,81.07
2018-10-12T02:49:59.279Z,78.57
2018-10-12T02:52:27.927Z,76.83
2018-10-12T02:54:56.523Z,74.73
2018-10-12T02:57:25.118Z,74.80
2018-10-12T02:59:53.891Z,72.57
2018-10-12T03:02:22.488Z,69.13
2018-10-12T03:04:51.124Z,69.83
2018-10-12T03:07:19.766Z,65.17
2018-10-12T03:09:48.537Z,64.43
2018-10-12T03:12:17.245Z,61.60
2018-10-12T03:14:45.876Z,59.97
2018-10-12T03:17:14.379Z,60.07
2018-10-12T03:19:42.842Z,60.23
2018-10-12T03:22:11.805Z,58.43
2018-10-12T03:24:41.616Z,57.27
2018-10-12T03:27:10.445Z,55.13
2018-10-12T03:29:39.331Z,52.53
2018-10-12T03:32:08.022Z,50.23
2018-10-12T03:34:36.713Z,48.20
2018-10-12T03:37:05.418Z,46.30
2018-10-12T03:39:34.207Z,46.20
2018-10-12T03:42:02.738Z,44.03
2018-10-12T03:44:31.385Z,42.83
2018-10-12T03:46:59.937Z,41.90
2018-10-12T03:49:28.701Z,42.23
2018-10-12T03:51:57.368Z,43.83
2018-10-12T03:54:25.992Z,41.43
2018-10-12T03:56:54.707Z,43.37
2018-10-12T03:59:23.793Z,42.37
2018-10-12T04:01:52.453Z,41.27
2018-10-12T04:04:22.966Z,42.40
2018-10-12T04:06:52.654Z,39.93
2018-10-12T04:09:21.318Z,40.97
2018-10-12T04:11:49.912Z,40.13
2018-10-12T04:14:18.655Z,41.50
2018-10-12T04:16:47.246Z,40.67
2018-10-12T04:19:15.747Z,39.03
2018-10-12T04:21:44.362Z,42.03
2018-10-12T04:24:12.963Z,40.83
2018-10-12T04:26:41.536Z,40.70
2018-10-12T04:29:10.226Z,41.23
2018-10-12T04:31:39.821Z,39.70
2018-10-12T04:34:08.441Z,40.07
2018-10-12T04:36:37.904Z,40.23
2018-10-12T04:39:17.597Z,38.27
2018-10-12T04:41:46.239Z,38.90
2018-10-12T04:44:15.832Z,40.20
2018-10-12T04:46:44.859Z,39.80
2018-10-12T04:49:15.242Z,39.43
2018-10-12T04:51:46.747Z,38.90
2018-10-12T04:54:16.633Z,45.63
2018-10-12T04:56:45.821Z,43.07
2018-10-12T04:59:14.369Z,39.73
2018-10-12T05:01:43.141Z,38.30
2018-10-12T05:04:11.761Z,39.80
2018-10-12T05:06:40.510Z,41.13
2018-10-12T05:09:10.477Z,38.20
2018-10-12T05:11:39.272Z,37.33
2018-10-12T05:14:08.020Z,40.17
2018-10-12T05:16:36.987Z,39.63
2018-10-12T05:19:05.841Z,40.07
2018-10-12T05:21:34.542Z,40.60
2018-10-12T05:24:03.321Z,41.13
2018-10-12T05:26:31.985Z,41.27
2018-10-12T05:29:00.652Z,41.90
2018-10-12T05:31:29.261Z,40.90
2018-10-12T05:33:57.849Z,42.43
2018-10-12T05:36:26.519Z,42.40
2018-10-12T05:38:55.144Z,40.17
2018-10-12T05:41:23.777Z,40.37
2018-10-12T05:43:52.410Z,38.30
2018-10-12T05:46:20.909Z,38.77
2018-10-12T05:49:01.555Z,39.70
2018-10-12T05:51:30.161Z,38.23
2018-10-12T05:53:59.205Z,37.83
2018-10-12T05:56:31.087Z,41.37
2018-10-12T05:58:59.931Z,39.37
2018-10-12T06:01:28.899Z,40.67
2018-10-12T06:03:57.412Z,38.97
2018-10-12T06:06:26.071Z,39.63
2018-10-12T06:08:54.931Z,40.70
2018-10-12T06:11:24.586Z,40.03
2018-10-12T06:13:54.270Z,40.70
2018-10-12T06:16:23.114Z,39.47
2018-10-12T06:18:51.941Z,39.70
2018-10-12T06:21:20.441Z,38.27
2018-10-12T06:23:48.978Z,38.03
2018-10-12T06:26:17.458Z,39.50
2018-10-12T06:28:46.056Z,37.47
2018-10-12T06:31:14.597Z,40.07
2018-10-12T06:33:43.196Z,38.57
2018-10-12T06:36:11.723Z,38.07
2018-10-12T06:38:40.319Z,39.30
2018-10-12T06:41:08.988Z,38.37
2018-10-12T06:43:37.598Z,37.03
2018-10-12T06:46:06.737Z,36.93
2018-10-12T06:48:35.385Z,37.17
2018-10-12T06:51:04.081Z,37.20
2018-10-12T06:53:32.694Z,37.40
2018-10-12T06:56:01.225Z,35.97
2018-10-12T06:58:29.896Z,35.37
2018-10-12T07:00:58.457Z,33.87
2018-10-12T07:03:27.059Z,33.23
2018-10-12T07:05:57.810Z,33.77
2018-10-12T07:08:26.327Z,33.67
2018-10-12T07:10:54.830Z,34.90
2018-10-12T07:13:23.401Z,34.23
2018-10-12T07:15:51.987Z,33.07
2018-10-12T07:18:20.758Z,32.40
2018-10-12T07:20:49.389Z,32.80
2018-10-12T07:23:17.992Z,32.10
2018-10-12T07:25:46.781Z,31.90
2018-10-12T07:28:16.298Z,33.63
2018-10-12T07:30:44.958Z,32.10
2018-10-12T07:33:13.529Z,32.53
2018-10-12T07:35:42.176Z,34.17
2018-10-12T07:38:10.693Z,33.00
2018-10-12T07:40:39.306Z,34.40
2018-10-12T07:43:07.893Z,32.27
2018-10-12T07:45:36.570Z,34.13
2018-10-12T07:48:05.263Z,32.20
2018-10-12T07:50:34.004Z,32.00
2018-10-12T07:53:02.498Z,32.37
2018-10-12T07:55:31.041Z,31.57
2018-10-12T07:57:59.619Z,31.47
2018-10-12T08:00:28.455Z,31.70
2018-10-12T08:02:57.011Z,32.40
2018-10-12T08:05:25.640Z,31.23
2018-10-12T08:07:54.193Z,31.10
2018-10-12T08:10:23.793Z,31.40
2018-10-12T08:12:52.386Z,31.07
2018-10-12T08:15:20.941Z,29.17
2018-10-12T08:17:49.632Z,30.53
2018-10-12T08:20:18.639Z,30.53
2018-10-12T08:22:47.213Z,30.23
2018-10-12T08:25:15.808Z,31.27
2018-10-12T08:27:44.606Z,30.57
2018-10-12T08:30:13.307Z,29.50
2018-10-12T08:32:41.952Z,29.43
2018-10-12T08:35:10.796Z,29.33
2018-10-12T08:37:39.469Z,28.53
2018-10-12T08:40:08.046Z,28.60
2018-10-12T08:42:37.080Z,28.03
2018-10-12T08:45:06.845Z,27.57
2018-10-12T08:47:35.338Z,27.30
2018-10-12T08:50:03.881Z,26.27
2018-10-12T08:52:32.637Z,26.40
2018-10-12T08:55:01.299Z,25.27
2018-10-12T08:57:30.184Z,25.33
2018-10-12T08:59:58.939Z,25.83
2018-10-12T09:02:28.561Z,24.67
2018-10-12T09:04:57.238Z,25.13
2018-10-12T09:07:25.926Z,24.13
2018-10-12T09:09:54.574Z,23.57
2018-10-12T09:12:24.110Z,24.10
2018-10-12T09:14:53.357Z,23.27
2018-10-12T09:17:21.897Z,22.10
2018-10-12T09:19:50.549Z,23.60
2018-10-12T09:22:19.101Z,23.33
2018-10-12T09:24:47.776Z,23.03
2018-10-12T09:27:16.478Z,22.77
2018-10-12T09:29:45.026Z,22.03
2018-10-12T09:32:14.004Z,22.10
2018-10-12T09:34:42.493Z,21.83
2018-10-12T09:37:11.037Z,22.80
2018-10-12T09:39:39.650Z,22.73
2018-10-12T09:42:08.321Z,22.47
2018-10-12T09:44:37.023Z,22.97
2018-10-12T09:47:05.536Z,23.43
2018-10-12T09:49:34.139Z,24.23
2018-10-12T09:52:02.812Z,23.13
2018-10-12T09:54:31.402Z,22.23
2018-10-12T09:57:05.117Z,24.37
2018-10-12T09:59:33.773Z,23.10
2018-10-12T10:02:07.875Z,23.13
2018-10-12T10:04:37.129Z,22.83
2018-10-12T10:07:05.873Z,22.37
2018-10-12T10:09:34.605Z,23.50
2018-10-12T10:12:03.270Z,23.50
2018-10-12T10:14:31.981Z,23.03
2018-10-12T10:17:00.625Z,22.93
2018-10-12T10:19:29.126Z,22.90
2018-10-12T10:21:57.782Z,23.13
2018-10-12T10:24:26.415Z,23.67
2018-10-12T10:26:55.242Z,24.03
2018-10-12T10:29:23.871Z,23.13
2018-10-12T10:31:53.863Z,23.67
2018-10-12T10:34:22.058Z,23.43
2018-10-12T10:36:52.842Z,22.90
2018-10-12T10:39:21.403Z,22.93
2018-10-12T10:41:50.043Z,21.87
2018-10-12T10:44:18.728Z,24.13
2018-10-12T10:46:47.269Z,23.53
2018-10-12T10:49:15.930Z,23.17
2018-10-12T10:51:44.497Z,24.50
2018-10-12T10:54:13.662Z,23.70
2018-10-12T10:56:42.216Z,23.80
2018-10-12T10:59:10.771Z,22.70
2018-10-12T11:01:39.803Z,23.43
2018-10-12T11:04:08.665Z,22.97
2018-10-12T11:06:37.358Z,23.53
2018-10-12T11:09:09.104Z,23.50
2018-10-12T11:11:37.651Z,23.23
2018-10-12T11:14:06.199Z,23.20
2018-10-12T11:16:34.963Z,23.17
2018-10-12T11:19:03.715Z,21.90
2018-10-12T11:21:33.080Z,21.20
2018-10-12T11:24:01.698Z,21.20
2018-10-12T11:26:30.428Z,22.07
2018-10-12T11:28:58.944Z,21.80
2018-10-12T11:31:28.609Z,19.83
2018-10-12T11:33:57.351Z,20.57
2018-10-12T11:36:26.550Z,20.60
2018-10-12T11:38:55.189Z,20.03
2018-10-12T11:41:23.868Z,19.52
2018-10-12T11:43:52.438Z,20.33
2018-10-12T11:46:21.200Z,20.80
2018-10-12T11:48:49.734Z,20.15
2018-10-12T11:51:18.489Z,21.37
2018-10-12T11:53:47.091Z,20.30
2018-10-12T11:56:15.800Z,20.87
2018-10-12T11:58:44.338Z,20.08
2018-10-12T12:01:12.851Z,20.95
2018-10-12T12:03:41.429Z,19.52
2018-10-12T12:06:10.260Z,19.98
2018-10-12T12:08:38.811Z,19.80
2018-10-12T12:11:07.707Z,20.70
2018-10-12T12:13:36.343Z,19.95
2018-10-12T12:16:05.019Z,20.10
2018-10-12T12:18:33.587Z,20.12
2018-10-12T12:21:02.368Z,19.32
2018-10-12T12:23:31.110Z,19.07
2018-10-12T12:25:59.646Z,19.45
2018-10-12T12:28:28.264Z,18.57
2018-10-12T12:30:56.953Z,18.15
2018-10-12T12:33:26.890Z,17.12
2018-10-12T12:35:55.812Z,16.52
2018-10-12T12:38:24.017Z,17.75
2018-10-12T12:40:52.790Z,16.77
2018-10-12T12:43:21.284Z,16.87
2018-10-12T12:45:49.777Z,16.48
2018-10-12T12:48:19.890Z,16.00
2018-10-12T12:50:48.109Z,16.20
2018-10-12T12:53:16.697Z,17.00
2018-10-12T12:55:45.393Z,16.85
2018-10-12T12:58:14.045Z,16.87
2018-10-12T13:00:42.624Z,105.45
2018-10-12T13:03:11.206Z,18.23
2018-10-12T13:05:40.074Z,15.93
2018-10-12T13:08:09.735Z,16.20
2018-10-12T13:10:38.261Z,16.00
2018-10-12T13:13:07.147Z,17.30
2018-10-12T13:15:35.907Z,16.62
2018-10-12T13:18:04.624Z,16.77
2018-10-12T13:20:33.239Z,17.10
2018-10-12T13:23:01.953Z,15.45
2018-10-12T13:25:30.614Z,17.23
2018-10-12T13:27:59.163Z,18.42
2018-10-12T13:30:27.732Z,17.90
2018-10-12T13:32:56.234Z,17.42
2018-10-12T13:35:25.932Z,18.25
2018-10-12T13:37:54.527Z,17.60
2018-10-12T13:40:23.078Z,17.35
2018-10-12T13:42:51.633Z,18.57
2018-10-12T13:45:20.367Z,17.50
2018-10-12T13:47:48.917Z,17.65
2018-10-12T13:50:17.510Z,17.80
2018-10-12T13:52:46.202Z,17.35
2018-10-12T13:55:14.744Z,16.75
2018-10-12T13:57:43.440Z,17.32
2018-10-12T14:00:12.178Z,18.17
2018-10-12T14:02:42.153Z,17.52
2018-10-12T14:05:10.764Z,17.95
2018-10-12T14:07:39.327Z,18.10
2018-10-12T14:10:07.907Z,18.05
2018-10-12T14:12:36.513Z,17.70
2018-10-12T14:15:05.911Z,17.80
2018-10-12T14:17:34.606Z,17.67
2018-10-12T14:20:03.324Z,18.10
2018-10-12T14:22:31.804Z,18.85
2018-10-12T14:25:00.430Z,18.20
2018-10-12T14:27:29.094Z,18.77
2018-10-12T14:29:57.778Z,19.00
2018-10-12T14:32:26.513Z,18.10
2018-10-12T14:34:55.193Z,18.42
2018-10-12T14:37:23.789Z,18.35
2018-10-12T14:39:52.456Z,18.40
2018-10-12T14:42:21.046Z,18.23
2018-10-12T14:44:49.720Z,19.00
2018-10-12T14:47:18.287Z,19.40
2018-10-12T14:49:46.920Z,18.77
2018-10-12T14:52:15.491Z,18.98
2018-10-12T14:54:44.042Z,19.65
2018-10-12T14:57:19.326Z,19.55
2018-10-12T14:59:49.073Z,19.62
2018-10-12T15:02:18.351Z,18.82
2018-10-12T15:04:47.007Z,19.73
2018-10-12T15:07:15.695Z,20.40
2018-10-12T15:09:44.388Z,18.83
2018-10-12T15:12:12.955Z,18.90
2018-10-12T15:15:24.390Z,18.30
2018-10-12T15:17:54.168Z,19.93
2018-10-12T15:20:24.259Z,19.90
2018-10-12T15:22:53.613Z,19.97
2018-10-12T15:25:22.210Z,20.17
2018-10-12T15:27:50.805Z,20.67
2018-10-12T15:30:20.215Z,20.80
2018-10-12T15:32:48.785Z,20.90
2018-10-12T15:35:17.340Z,20.43
2018-10-12T15:37:46.166Z,20.23
2018-10-12T15:40:14.904Z,20.20
2018-10-12T15:42:50.206Z,20.37
2018-10-12T15:45:18.885Z,21.30
2018-10-12T15:47:47.585Z,21.07
2018-10-12T15:50:16.286Z,21.07
2018-10-12T15:52:44.852Z,20.80
2018-10-12T15:55:13.491Z,20.23
2018-10-12T15:57:42.113Z,21.63
2018-10-12T16:00:11.819Z,21.10
2018-10-12T16:02:41.401Z,21.37
2018-10-12T16:05:10.054Z,20.60
2018-10-12T16:07:38.739Z,21.40
2018-10-12T16:10:08.500Z,22.37
2018-10-12T16:12:37.276Z,22.63
2018-10-12T16:15:06.054Z,22.93
2018-10-12T16:17:34.618Z,24.57
2018-10-12T16:20:03.306Z,23.73
2018-10-12T16:22:31.917Z,26.17
2018-10-12T16:25:11.950Z,24.93
2018-10-12T16:27:40.620Z,27.10
2018-10-12T16:30:09.227Z,26.60
2018-10-12T16:32:37.801Z,27.90
2018-10-12T16:35:06.547Z,30.40
2018-10-12T16:37:35.297Z,30.70
2018-10-12T16:40:04.023Z,32.10
2018-10-12T16:42:33.566Z,33.37
2018-10-12T16:45:02.177Z,34.53
2018-10-12T16:47:30.795Z,36.53
2018-10-12T16:49:59.374Z,41.50
2018-10-12T16:52:28.079Z,42.27
2018-10-12T16:54:56.596Z,38.50
2018-10-12T16:57:32.166Z,39.57
2018-10-12T17:00:00.694Z,41.53
2018-10-12T17:02:29.274Z,43.67
2018-10-12T17:04:57.929Z,41.90
2018-10-12T17:07:26.491Z,39.57
2018-10-12T17:10:01.702Z,36.80
2018-10-12T17:12:30.314Z,37.43
2018-10-12T17:14:58.974Z,34.83
2018-10-12T17:17:27.487Z,35.07
2018-10-12T17:19:56.002Z,34.17
2018-10-12T17:22:24.597Z,34.50
2018-10-12T17:24:53.414Z,33.50
2018-10-12T17:27:22.099Z,34.40
2018-10-12T17:29:50.707Z,31.93
2018-10-12T17:32:19.336Z,31.57
2018-10-12T17:34:48.493Z,31.53
2018-10-12T17:37:17.114Z,31.63
2018-10-12T17:39:45.617Z,28.27
2018-10-12T17:42:16.699Z,28.03
2018-10-12T17:44:45.500Z,27.50
2018-10-12T17:47:14.938Z,26.43
2018-10-12T17:49:43.732Z,25.67
2018-10-12T17:52:13.323Z,24.87
2018-10-12T17:54:41.921Z,26.00
2018-10-12T17:57:10.666Z,25.10
2018-10-12T17:59:39.225Z,24.33
2018-10-12T18:02:07.969Z,24.63
2018-10-12T18:04:36.525Z,25.57
2018-10-12T18:07:05.518Z,25.40
2018-10-12T18:09:34.159Z,25.10
2018-10-12T18:12:02.941Z,26.63
2018-10-12T18:14:31.584Z,25.27
2018-10-12T18:17:00.520Z,25.30
2018-10-12T18:19:30.329Z,25.40
2018-10-12T18:21:58.929Z,25.73
2018-10-12T18:24:27.633Z,25.33
2018-10-12T18:26:56.294Z,24.00
2018-10-12T18:29:26.190Z,25.70
2018-10-12T18:31:54.938Z,25.53
2018-10-12T18:34:23.621Z,27.00
2018-10-12T18:36:52.199Z,26.40
2018-10-12T18:39:20.779Z,26.70
2018-10-12T18:41:49.524Z,27.13
2018-10-12T18:44:18.110Z,27.07
2018-10-12T18:46:46.933Z,26.03
2018-10-12T18:49:15.503Z,25.47
2018-10-12T18:51:44.124Z,26.87
2018-10-12T18:54:12.766Z,26.70
2018-10-12T18:56:42.374Z,27.13
2018-10-12T18:59:11.175Z,26.67
2018-10-12T19:01:39.811Z,24.97
2018-10-12T19:04:08.537Z,26.20
2018-10-12T19:06:37.241Z,25.90
2018-10-12T19:09:08.148Z,27.52
2018-10-12T19:11:36.750Z,26.20
2018-10-12T19:14:05.497Z,26.70
2018-10-12T19:16:34.423Z,25.73
2018-10-12T19:19:03.315Z,25.23
2018-10-12T19:21:31.939Z,27.70
2018-10-12T19:24:00.664Z,27.47
2018-10-12T19:26:30.223Z,29.17
2018-10-12T19:28:58.758Z,29.07
2018-10-12T19:31:27.656Z,26.97
2018-10-12T19:33:56.142Z,27.03
2018-10-12T19:36:24.756Z,26.97
2018-10-12T19:38:53.318Z,26.93
2018-10-12T19:41:21.863Z,26.37
2018-10-12T19:43:51.431Z,27.37
2018-10-12T19:46:22.053Z,26.23
2018-10-12T19:48:50.644Z,26.63
2018-10-12T19:51:19.507Z,25.07
2018-10-12T19:53:48.162Z,25.00
2018-10-12T19:56:16.862Z,26.63
2018-10-12T19:58:45.460Z,26.77
2018-10-12T20:01:14.008Z,25.30
2018-10-12T20:03:42.601Z,27.00
2018-10-12T20:06:11.191Z,26.90
2018-10-12T20:08:39.763Z,26.10
2018-10-12T20:11:09.182Z,24.13
2018-10-12T20:13:37.740Z,24.63
2018-10-12T20:16:06.614Z,25.97
2018-10-12T20:18:35.715Z,26.50
2018-10-12T20:21:04.464Z,27.03
2018-10-12T20:23:33.097Z,25.73
2018-10-12T20:26:01.765Z,24.40
2018-10-12T20:28:30.679Z,23.97
2018-10-12T20:30:59.572Z,25.23
2018-10-12T20:33:34.676Z,24.30
2018-10-12T20:36:03.375Z,24.83
2018-10-12T20:38:32.106Z,23.87
2018-10-12T20:41:01.774Z,25.57
2018-10-12T20:43:30.470Z,24.17
2018-10-12T20:45:59.077Z,25.47
2018-10-12T20:48:27.706Z,24.40
2018-10-12T20:50:56.476Z,25.33
2018-10-12T20:53:28.746Z,26.00
2018-10-12T20:55:57.401Z,26.33
2018-10-12T20:58:25.952Z,26.67
2018-10-12T21:00:54.508Z,25.67
2018-10-12T21:03:24.411Z,27.20
2018-10-12T21:05:54.989Z,26.13
2018-10-12T21:08:23.590Z,26.30
2018-10-12T21:10:54.143Z,25.63
2018-10-12T21:13:22.761Z,26.73
2018-10-12T21:15:51.244Z,25.13
2018-10-12T21:18:19.812Z,24.50
2018-10-12T21:20:48.330Z,25.57
2018-10-12T21:23:16.949Z,25.60
2018-10-12T21:25:46.610Z,25.37
2018-10-12T21:28:15.209Z,25.37
2018-10-12T21:30:43.842Z,25.57
2018-10-12T21:33:12.639Z,26.40
2018-10-12T21:35:41.529Z,28.10
2018-10-12T21:38:10.157Z,26.73
2018-10-12T21:40:38.767Z,27.20
2018-10-12T21:43:07.420Z,27.23
2018-10-12T21:45:35.966Z,29.30
2018-10-12T21:48:08.667Z,28.93
2018-10-12T21:50:37.352Z,30.17
2018-10-12T21:53:06.229Z,28.73
2018-10-12T21:55:35.006Z,29.60
2018-10-12T21:58:03.765Z,29.10
2018-10-12T22:00:33.074Z,29.23
2018-10-12T22:03:01.858Z,29.93
2018-10-12T22:05:30.684Z,28.87
2018-10-12T22:07:59.239Z,29.73
2018-10-12T22:10:27.860Z,29.90
2018-10-12T22:12:56.501Z,30.13
2018-10-12T22:15:25.235Z,29.50
2018-10-12T22:17:53.767Z,29.27
2018-10-12T22:20:22.625Z,30.23
2018-10-12T22:22:51.518Z,29.67
2018-10-12T22:25:20.186Z,30.03
2018-10-12T22:27:48.990Z,31.53
2018-10-12T22:30:17.796Z,30.53
2018-10-12T22:32:46.484Z,31.40
2018-10-12T22:35:15.130Z,31.33
2018-10-12T22:37:43.718Z,31.97
2018-10-12T22:40:12.290Z,32.73
2018-10-12T22:42:40.962Z,32.40
2018-10-12T22:45:09.554Z,30.73
2018-10-12T22:47:38.281Z,31.33
2018-10-12T22:50:06.929Z,30.83
2018-10-12T22:52:35.522Z,31.60
2018-10-12T22:55:04.337Z,33.67
2018-10-12T22:57:32.971Z,30.77
2018-10-12T23:00:01.746Z,32.07
2018-10-12T23:02:30.359Z,31.53
2018-10-12T23:04:58.950Z,31.23
2018-10-12T23:07:28.220Z,32.90
2018-10-12T23:09:56.776Z,34.20
2018-10-12T23:12:25.956Z,35.03
2018-10-12T23:14:54.627Z,35.43
2018-10-12T23:17:23.286Z,34.07
2018-10-12T23:19:52.998Z,33.70
2018-10-12T23:22:21.659Z,33.50
2018-10-12T23:24:50.370Z,34.67
2018-10-12T23:27:18.994Z,36.17
2018-10-12T23:29:47.518Z,35.13
2018-10-12T23:32:16.186Z,35.33
2018-10-12T23:34:44.854Z,34.47
2018-10-12T23:37:13.495Z,33.57
2018-10-12T23:39:42.089Z,34.77
2018-10-12T23:42:10.686Z,35.60
2018-10-12T23:44:39.431Z,36.23
2018-10-12T23:47:08.222Z,37.13
2018-10-12T23:49:36.809Z,36.80
2018-10-12T23:52:05.364Z,36.83
2018-10-12T23:54:33.900Z,35.80
2018-10-12T23:57:02.600Z,36.40
2018-10-12T23:59:31.301Z,35.17
